createdAt,value
2023-05-14T00:01:07.988Z,91.60
2023-05-14T00:03:36.993Z,91.50
2023-05-14T00:06:06.651Z,91.70
2023-05-14T00:08:34.715Z,91.60
2023-05-14T00:11:02.606Z,90.70
2023-05-14T00:13:33.681Z,90.30
2023-05-14T00:18:45.832Z,90.10
2023-05-14T00:21:20.733Z,90.00
2023-05-14T00:23:48.649Z,90.90
2023-05-14T00:26:20.305Z,91.30
2023-05-14T00:28:49.033Z,91.40
2023-05-14T00:31:22.859Z,90.40
2023-05-14T00:33:50.785Z,90.30
2023-05-14T00:36:25.915Z,86.10
2023-05-14T00:38:53.813Z,89.50
2023-05-14T00:41:21.715Z,91.40
2023-05-14T00:43:49.644Z,91.50
2023-05-14T00:46:23.540Z,91.30
2023-05-14T00:48:51.492Z,91.60
2023-05-14T00:51:19.983Z,92.40
2023-05-14T00:53:55.853Z,91.00
2023-05-14T00:56:24.804Z,91.60
2023-05-14T00:58:52.740Z,92.20
2023-05-14T01:01:21.011Z,92.20
2023-05-14T01:03:49.218Z,92.60
2023-05-14T01:06:28.697Z,91.20
2023-05-14T01:09:06.949Z,85.60
2023-05-14T01:12:00.284Z,90.90
2023-05-14T01:14:39.313Z,91.30
2023-05-14T01:17:09.997Z,91.30
2023-05-14T01:19:42.094Z,92.40
2023-05-14T01:22:11.873Z,92.90
2023-05-14T01:24:42.531Z,91.60
2023-05-14T01:27:16.912Z,90.90
2023-05-14T01:29:54.333Z,92.00
2023-05-14T01:32:25.996Z,92.70
2023-05-14T01:34:56.521Z,89.90
2023-05-14T01:37:27.056Z,92.70
2023-05-14T01:39:57.429Z,93.60
2023-05-14T01:42:29.584Z,90.40
2023-05-14T01:44:57.622Z,92.10
2023-05-14T01:47:28.154Z,89.40
2023-05-14T01:49:58.837Z,90.80
2023-05-14T01:52:33.989Z,91.80
2023-05-14T01:55:02.200Z,90.60
2023-05-14T01:57:30.049Z,88.70
2023-05-14T02:00:10.096Z,90.20
2023-05-14T02:02:37.970Z,90.00
2023-05-14T02:05:07.148Z,90.10
2023-05-14T02:07:36.424Z,90.00
2023-05-14T02:10:10.741Z,91.90
2023-05-14T02:12:41.179Z,91.90
2023-05-14T02:15:11.048Z,92.80
2023-05-14T02:17:39.088Z,91.60
2023-05-14T02:20:08.360Z,92.50
2023-05-14T02:22:42.159Z,93.60
2023-05-14T02:25:11.104Z,91.30
2023-05-14T02:27:54.032Z,90.30
2023-05-14T02:30:23.228Z,93.00
2023-05-14T02:32:57.120Z,91.70
2023-05-14T02:35:25.110Z,91.90
2023-05-14T02:38:00.442Z,90.70
2023-05-14T02:40:34.107Z,90.00
2023-05-14T02:43:08.125Z,90.60
2023-05-14T02:45:36.463Z,94.10
2023-05-14T02:48:13.100Z,95.00
2023-05-14T02:50:43.940Z,94.30
2023-05-14T02:53:13.271Z,95.30
2023-05-14T02:55:47.099Z,93.60
2023-05-14T02:58:15.092Z,93.90
2023-05-14T03:00:42.996Z,95.10
2023-05-14T03:03:11.208Z,93.80
2023-05-14T03:05:45.440Z,91.50
2023-05-14T03:08:17.454Z,93.50
2023-05-14T03:10:48.150Z,92.90
2023-05-14T03:13:20.624Z,91.20
2023-05-14T03:15:48.575Z,93.10
2023-05-14T03:18:19.252Z,90.40
2023-05-14T03:20:50.080Z,90.90
2023-05-14T03:23:22.301Z,92.40
2023-05-14T03:25:50.173Z,92.30
2023-05-14T03:28:20.880Z,90.40
2023-05-14T03:30:51.895Z,90.70
2023-05-14T03:33:25.715Z,92.90
2023-05-14T03:35:59.431Z,94.40
2023-05-14T03:38:28.679Z,93.80
2023-05-14T03:40:58.728Z,93.30
2023-05-14T03:43:31.865Z,93.20
2023-05-14T03:46:02.544Z,94.10
2023-05-14T03:48:33.209Z,92.70
2023-05-14T03:51:01.132Z,91.80
2023-05-14T03:53:30.394Z,90.80
2023-05-14T03:56:00.442Z,90.80
2023-05-14T03:58:28.314Z,92.00
2023-05-14T04:01:01.088Z,91.20
2023-05-14T04:03:29.143Z,91.30
2023-05-14T04:05:59.902Z,91.80
2023-05-14T04:08:35.222Z,92.70
2023-05-14T04:11:05.256Z,93.90
2023-05-14T04:13:36.268Z,93.30
2023-05-14T04:16:07.840Z,93.70
2023-05-14T04:18:35.988Z,95.00
2023-05-14T04:21:06.864Z,94.70
2023-05-14T04:23:38.985Z,94.70
2023-05-14T04:26:06.876Z,94.20
2023-05-14T04:28:49.478Z,94.60
2023-05-14T04:31:17.486Z,95.50
2023-05-14T04:33:51.190Z,95.70
2023-05-14T04:36:19.482Z,94.40
2023-05-14T04:38:48.727Z,93.40
2023-05-14T04:41:19.675Z,94.30
2023-05-14T04:43:50.650Z,94.70
2023-05-14T04:46:21.572Z,95.70
2023-05-14T04:48:52.339Z,94.70
2023-05-14T04:51:20.218Z,94.10
2023-05-14T04:53:49.451Z,94.80
2023-05-14T04:56:17.380Z,95.80
2023-05-14T04:58:48.282Z,95.70
2023-05-14T05:01:19.020Z,95.80
2023-05-14T05:03:46.965Z,94.20
2023-05-14T05:06:22.292Z,94.40
2023-05-14T05:08:51.481Z,95.80
2023-05-14T05:11:25.449Z,94.90
2023-05-14T05:13:53.296Z,94.70
2023-05-14T05:16:26.764Z,94.70
2023-05-14T05:18:57.181Z,94.20
2023-05-14T05:21:28.220Z,93.70
2023-05-14T05:23:57.440Z,94.00
2023-05-14T05:26:28.787Z,95.10
2023-05-14T05:28:56.671Z,95.60
2023-05-14T05:31:26.901Z,95.50
2023-05-14T05:33:58.244Z,94.30
2023-05-14T05:36:26.231Z,93.70
2023-05-14T05:41:40.632Z,94.30
2023-05-14T05:44:08.592Z,94.70
2023-05-14T05:46:39.380Z,95.00
2023-05-14T05:49:07.390Z,94.80
2023-05-14T05:51:35.237Z,95.30
2023-05-14T05:54:06.337Z,95.40
2023-05-14T05:56:34.207Z,95.30
2023-05-14T05:59:04.022Z,95.50
2023-05-14T06:01:38.160Z,94.60
2023-05-14T06:04:06.395Z,94.00
2023-05-14T06:06:36.744Z,94.40
2023-05-14T06:09:06.738Z,95.20
2023-05-14T06:11:36.961Z,94.80
2023-05-14T06:14:06.226Z,94.30
2023-05-14T06:16:37.206Z,93.90
2023-05-14T06:19:05.145Z,94.00
2023-05-14T06:21:33.065Z,93.80
2023-05-14T06:24:01.059Z,93.70
2023-05-14T06:26:31.754Z,94.10
2023-05-14T06:29:07.000Z,93.80
2023-05-14T06:31:37.834Z,94.00
2023-05-14T06:34:05.749Z,93.60
2023-05-14T06:36:33.617Z,94.10
2023-05-14T06:39:01.465Z,93.70
2023-05-14T06:41:38.311Z,93.60
2023-05-14T06:44:10.906Z,93.30
2023-05-14T06:46:38.990Z,93.40
2023-05-14T06:49:08.742Z,93.60
2023-05-14T06:51:36.751Z,93.30
2023-05-14T06:54:07.603Z,93.10
2023-05-14T06:56:35.989Z,93.30
2023-05-14T06:59:03.886Z,93.80
2023-05-14T07:01:33.164Z,92.80
2023-05-14T07:04:03.105Z,94.00
2023-05-14T07:06:33.861Z,93.00
2023-05-14T07:09:02.614Z,92.10
2023-05-14T07:11:30.897Z,93.00
2023-05-14T07:14:02.956Z,93.10
2023-05-14T07:16:35.674Z,93.40
2023-05-14T07:19:06.705Z,93.00
2023-05-14T07:21:37.468Z,93.30
2023-05-14T07:24:05.992Z,93.50
2023-05-14T07:26:38.994Z,92.80
2023-05-14T07:29:10.085Z,92.80
2023-05-14T07:31:39.361Z,92.20
2023-05-14T07:34:08.486Z,92.10
2023-05-14T07:36:36.418Z,92.70
2023-05-14T07:39:04.500Z,93.30
2023-05-14T07:41:38.691Z,92.60
2023-05-14T07:44:06.693Z,91.80
2023-05-14T07:46:39.107Z,91.90
2023-05-14T07:49:07.035Z,91.40
2023-05-14T07:51:39.895Z,91.00
2023-05-14T07:54:07.786Z,90.70
2023-05-14T07:56:41.749Z,90.80
2023-05-14T07:59:09.595Z,91.10
2023-05-14T08:01:39.467Z,90.90
2023-05-14T08:04:11.623Z,90.40
2023-05-14T08:06:42.783Z,91.20
2023-05-14T08:09:13.204Z,92.30
2023-05-14T08:11:50.145Z,89.70
2023-05-14T08:14:18.011Z,89.80
2023-05-14T08:16:47.713Z,90.10
2023-05-14T08:19:18.493Z,89.00
2023-05-14T08:21:49.628Z,88.90
2023-05-14T08:24:17.795Z,89.50
2023-05-14T08:26:48.939Z,89.30
2023-05-14T08:29:30.741Z,88.40
2023-05-14T08:32:05.781Z,89.60
2023-05-14T08:34:39.943Z,89.00
2023-05-14T08:37:07.808Z,87.60
2023-05-14T08:39:45.122Z,86.40
2023-05-14T08:42:14.478Z,89.50
2023-05-14T08:44:54.775Z,87.90
2023-05-14T08:47:25.951Z,87.80
2023-05-14T08:50:02.649Z,87.50
2023-05-14T08:52:30.950Z,86.10
2023-05-14T08:55:01.400Z,87.60
2023-05-14T08:57:31.163Z,87.00
2023-05-14T09:00:05.805Z,88.20
2023-05-14T09:02:53.296Z,87.10
2023-05-14T09:05:23.117Z,84.90
2023-05-14T09:07:51.358Z,87.80
2023-05-14T09:10:28.805Z,84.10
2023-05-14T09:13:02.739Z,85.00
2023-05-14T09:15:36.001Z,84.20
2023-05-14T09:18:06.539Z,84.20
2023-05-14T09:20:34.749Z,79.90
2023-05-14T09:23:02.692Z,83.80
2023-05-14T09:25:36.129Z,84.50
2023-05-14T09:28:10.659Z,85.20
2023-05-14T09:30:39.016Z,86.10
2023-05-14T09:33:26.491Z,86.00
2023-05-14T09:35:58.756Z,86.10
2023-05-14T09:38:30.559Z,84.40
2023-05-14T09:40:58.664Z,83.50
2023-05-14T09:43:32.012Z,82.90
2023-05-14T09:45:59.929Z,86.80
2023-05-14T09:48:31.387Z,84.10
2023-05-14T09:50:59.284Z,84.90
2023-05-14T09:53:33.888Z,80.60
2023-05-14T09:56:06.036Z,81.30
2023-05-14T09:58:33.912Z,81.70
2023-05-14T10:01:07.752Z,84.10
2023-05-14T10:03:37.848Z,79.10
2023-05-14T10:06:28.919Z,78.90
2023-05-14T10:08:58.351Z,80.50
2023-05-14T10:11:29.718Z,79.80
2023-05-14T10:14:08.402Z,79.30
2023-05-14T10:16:40.841Z,80.30
2023-05-14T10:19:18.752Z,80.70
2023-05-14T10:21:50.719Z,79.50
2023-05-14T10:24:22.100Z,79.60
2023-05-14T10:26:53.447Z,79.60
2023-05-14T10:29:21.393Z,79.80
2023-05-14T10:31:54.640Z,82.40
2023-05-14T10:34:38.683Z,79.10
2023-05-14T10:37:08.752Z,79.10
2023-05-14T10:39:47.552Z,79.20
2023-05-14T10:42:19.891Z,82.70
2023-05-14T10:44:58.663Z,81.80
2023-05-14T10:47:30.436Z,83.00
2023-05-14T10:50:02.363Z,79.20
2023-05-14T10:52:30.879Z,83.70
2023-05-14T10:55:15.542Z,80.20
2023-05-14T10:57:47.468Z,80.20
2023-05-14T11:00:18.859Z,80.50
2023-05-14T11:02:47.146Z,82.50
2023-05-14T11:05:18.069Z,85.30
2023-05-14T11:07:50.463Z,80.70
2023-05-14T11:10:21.880Z,79.20
2023-05-14T11:12:52.269Z,84.40
2023-05-14T11:15:29.324Z,80.90
2023-05-14T11:18:07.187Z,79.20
2023-05-14T11:20:37.528Z,77.80
2023-05-14T11:23:05.401Z,79.20
2023-05-14T11:25:35.754Z,77.30
2023-05-14T11:28:09.710Z,75.00
2023-05-14T11:30:40.514Z,84.30
2023-05-14T11:33:08.690Z,71.10
2023-05-14T11:35:38.977Z,74.20
2023-05-14T11:38:07.988Z,76.60
2023-05-14T11:40:37.141Z,75.10
2023-05-14T11:43:05.087Z,76.30
2023-05-14T11:45:33.271Z,75.50
2023-05-14T11:48:16.486Z,75.60
2023-05-14T11:50:49.646Z,74.20
2023-05-14T11:53:20.798Z,75.80
2023-05-14T11:55:49.125Z,74.10
2023-05-14T11:58:18.844Z,76.20
2023-05-14T12:00:47.378Z,77.20
2023-05-14T12:03:23.501Z,75.50
2023-05-14T12:06:08.744Z,74.20
2023-05-14T12:08:39.476Z,75.20
2023-05-14T12:11:10.594Z,75.40
2023-05-14T12:13:40.991Z,74.40
2023-05-14T12:16:08.998Z,75.20
2023-05-14T12:18:44.264Z,73.70
2023-05-14T12:21:22.403Z,75.50
2023-05-14T12:23:59.018Z,73.10
2023-05-14T12:26:27.372Z,74.40
2023-05-14T12:29:00.488Z,76.60
2023-05-14T12:31:36.266Z,74.20
2023-05-14T12:34:05.133Z,77.30
2023-05-14T12:36:40.258Z,77.70
2023-05-14T12:39:15.594Z,75.90
2023-05-14T12:41:43.878Z,76.30
2023-05-14T12:44:14.534Z,78.70
2023-05-14T12:46:42.502Z,75.00
2023-05-14T12:49:13.297Z,75.70
2023-05-14T12:51:42.552Z,76.50
2023-05-14T12:54:10.954Z,76.70
2023-05-14T12:56:41.624Z,79.50
2023-05-14T12:59:12.696Z,76.40
2023-05-14T13:01:42.020Z,76.90
2023-05-14T13:04:13.799Z,76.70
2023-05-14T13:06:43.168Z,78.40
2023-05-14T13:09:11.021Z,77.60
2023-05-14T13:11:39.013Z,78.50
2023-05-14T13:14:06.937Z,78.70
2023-05-14T13:16:37.984Z,77.90
2023-05-14T13:19:06.035Z,79.80
2023-05-14T13:21:33.933Z,75.90
2023-05-14T13:24:03.259Z,77.60
2023-05-14T13:26:31.227Z,78.50
2023-05-14T13:28:59.103Z,77.90
2023-05-14T13:31:29.838Z,75.20
2023-05-14T13:33:57.951Z,76.70
2023-05-14T13:36:25.837Z,78.20
2023-05-14T13:38:53.778Z,78.40
2023-05-14T13:41:24.711Z,78.70
2023-05-14T13:43:52.602Z,79.70
2023-05-14T13:46:20.559Z,82.00
2023-05-14T13:48:48.452Z,79.30
2023-05-14T13:51:16.357Z,79.90
2023-05-14T13:53:50.352Z,77.60
2023-05-14T13:56:22.728Z,77.80
2023-05-14T13:58:50.701Z,77.90
2023-05-14T14:01:21.855Z,79.60
2023-05-14T14:03:50.192Z,77.40
2023-05-14T14:06:18.077Z,77.70
2023-05-14T14:08:45.954Z,76.70
2023-05-14T14:11:13.975Z,77.60
2023-05-14T14:13:46.372Z,79.70
2023-05-14T14:16:14.683Z,77.10
2023-05-14T14:18:48.692Z,79.40
2023-05-14T14:21:18.065Z,80.10
2023-05-14T14:23:47.173Z,79.80
2023-05-14T14:26:18.197Z,81.30
2023-05-14T14:28:47.475Z,79.10
2023-05-14T14:31:15.741Z,76.40
2023-05-14T14:33:43.889Z,79.30
2023-05-14T14:36:11.792Z,80.20
2023-05-14T14:38:42.709Z,77.60
2023-05-14T14:41:16.483Z,76.30
2023-05-14T14:43:44.356Z,72.90
2023-05-14T14:46:16.168Z,74.60
2023-05-14T14:48:44.116Z,73.20
2023-05-14T14:51:14.871Z,75.90
2023-05-14T14:53:45.661Z,70.00
2023-05-14T14:56:19.294Z,73.70
2023-05-14T14:58:47.135Z,73.70
2023-05-14T15:01:16.849Z,72.40
2023-05-14T15:03:50.245Z,75.00
2023-05-14T15:06:18.197Z,77.10
2023-05-14T15:08:46.064Z,75.50
2023-05-14T15:11:14.592Z,74.90
2023-05-14T15:13:43.038Z,74.20
2023-05-14T15:16:20.605Z,75.60
2023-05-14T15:18:51.508Z,75.00
2023-05-14T15:21:30.354Z,75.40
2023-05-14T15:23:58.214Z,73.90
2023-05-14T15:26:26.202Z,73.10
2023-05-14T15:28:55.974Z,70.30
2023-05-14T15:31:31.194Z,70.40
2023-05-14T15:33:59.214Z,73.80
2023-05-14T15:36:27.121Z,71.50
2023-05-14T15:38:57.854Z,72.80
2023-05-14T15:41:28.597Z,72.40
2023-05-14T15:43:58.096Z,73.30
2023-05-14T15:46:26.883Z,74.40
2023-05-14T15:48:59.435Z,75.20
2023-05-14T15:51:29.713Z,75.00
2023-05-14T15:53:57.725Z,75.70
2023-05-14T15:56:28.753Z,76.40
2023-05-14T15:58:56.672Z,74.60
2023-05-14T16:01:27.398Z,72.90
2023-05-14T16:03:55.446Z,73.90
2023-05-14T16:06:24.780Z,72.70
2023-05-14T16:08:52.684Z,75.70
2023-05-14T16:11:21.428Z,72.00
2023-05-14T16:13:49.609Z,73.60
2023-05-14T16:16:17.547Z,72.60
2023-05-14T16:18:45.432Z,74.30
2023-05-14T16:21:13.391Z,78.60
2023-05-14T16:23:42.618Z,76.00
2023-05-14T16:26:16.134Z,73.80
2023-05-14T16:28:44.012Z,72.60
2023-05-14T16:31:11.969Z,74.00
2023-05-14T16:33:39.854Z,73.30
2023-05-14T16:36:10.498Z,73.90
2023-05-14T16:38:57.181Z,75.10
2023-05-14T16:41:33.598Z,76.10
2023-05-14T16:44:04.489Z,76.90
2023-05-14T16:46:32.913Z,78.20
2023-05-14T16:49:02.207Z,78.20
2023-05-14T16:51:30.088Z,78.10
2023-05-14T16:53:59.511Z,79.80
2023-05-14T16:56:27.617Z,80.50
2023-05-14T16:58:55.524Z,81.00
2023-05-14T17:01:23.442Z,80.80
2023-05-14T17:03:51.344Z,78.90
2023-05-14T17:06:19.194Z,79.40
2023-05-14T17:08:47.051Z,78.50
2023-05-14T17:11:16.317Z,76.30
2023-05-14T17:13:44.180Z,73.80
2023-05-14T17:16:15.432Z,75.00
2023-05-14T17:18:49.325Z,75.60
2023-05-14T17:21:17.207Z,79.20
2023-05-14T17:23:47.119Z,76.60
2023-05-14T17:26:18.971Z,74.20
2023-05-14T17:28:49.636Z,74.40
2023-05-14T17:31:31.021Z,74.70
2023-05-14T17:34:05.036Z,74.50
2023-05-14T17:36:34.214Z,74.50
2023-05-14T17:39:05.226Z,76.30
2023-05-14T17:41:36.801Z,76.60
2023-05-14T17:44:04.799Z,80.10
2023-05-14T17:46:35.395Z,81.40
2023-05-14T17:49:12.680Z,82.20
2023-05-14T17:51:40.660Z,77.40
2023-05-14T17:54:08.983Z,78.30
2023-05-14T17:56:38.404Z,80.90
2023-05-14T17:59:07.067Z,76.70
2023-05-14T18:01:39.558Z,73.90
2023-05-14T18:04:07.528Z,78.50
2023-05-14T18:06:35.490Z,81.30
2023-05-14T18:09:06.512Z,76.50
2023-05-14T18:11:34.673Z,75.10
2023-05-14T18:14:04.445Z,72.70
2023-05-14T18:16:32.466Z,73.00
2023-05-14T18:19:09.583Z,74.50
2023-05-14T18:21:46.494Z,73.80
2023-05-14T18:24:14.397Z,75.40
2023-05-14T18:26:45.383Z,75.90
2023-05-14T18:29:17.813Z,76.20
2023-05-14T18:31:51.645Z,74.30
2023-05-14T18:34:25.533Z,75.20
2023-05-14T18:36:53.513Z,76.90
2023-05-14T18:39:27.678Z,77.00
2023-05-14T18:41:59.742Z,79.70
2023-05-14T18:44:32.036Z,85.00
2023-05-14T18:47:00.416Z,84.10
2023-05-14T18:49:28.354Z,84.80
2023-05-14T18:51:56.216Z,84.70
2023-05-14T18:54:24.065Z,84.30
2023-05-14T18:57:01.337Z,83.70
2023-05-14T18:59:29.187Z,83.00
2023-05-14T19:02:04.591Z,82.80
2023-05-14T19:04:33.488Z,82.60
2023-05-14T19:07:01.709Z,82.30
2023-05-14T19:09:29.583Z,81.90
2023-05-14T19:12:03.183Z,82.20
2023-05-14T19:14:33.868Z,82.00
2023-05-14T19:17:06.593Z,81.60
2023-05-14T19:19:37.756Z,82.10
2023-05-14T19:22:12.030Z,82.60
2023-05-14T19:24:40.102Z,82.70
2023-05-14T19:27:08.477Z,82.60
2023-05-14T19:29:42.574Z,82.70
2023-05-14T19:32:11.903Z,82.90
2023-05-14T19:34:57.855Z,82.90
2023-05-14T19:37:34.786Z,82.70
2023-05-14T19:40:06.416Z,82.80
2023-05-14T19:42:37.045Z,82.80
2023-05-14T19:45:08.450Z,82.70
2023-05-14T19:47:40.609Z,83.10
2023-05-14T19:50:09.352Z,82.80
2023-05-14T19:52:43.080Z,83.10
2023-05-14T19:55:11.085Z,83.30
2023-05-14T19:57:44.966Z,83.30
2023-05-14T20:00:15.842Z,83.60
2023-05-14T20:02:45.552Z,83.50
2023-05-14T20:05:16.458Z,83.50
2023-05-14T20:07:44.786Z,83.50
2023-05-14T20:10:15.201Z,83.70
2023-05-14T20:12:45.869Z,82.90
2023-05-14T20:15:16.817Z,81.60
2023-05-14T20:17:46.169Z,83.40
2023-05-14T20:20:14.471Z,84.40
2023-05-14T20:22:43.903Z,84.60
2023-05-14T20:25:12.307Z,84.70
2023-05-14T20:27:41.112Z,84.60
2023-05-14T20:30:09.851Z,84.50
2023-05-14T20:32:40.876Z,84.60
2023-05-14T20:35:16.099Z,84.40
2023-05-14T20:37:50.371Z,83.90
2023-05-14T20:40:18.436Z,84.40
2023-05-14T20:42:46.497Z,84.40
2023-05-14T20:45:14.383Z,84.60
2023-05-14T20:47:44.537Z,84.70
2023-05-14T20:50:13.566Z,83.40
2023-05-14T20:52:42.839Z,83.50
2023-05-14T20:55:11.381Z,84.80
2023-05-14T20:57:44.475Z,85.10
2023-05-14T21:00:16.090Z,85.20
2023-05-14T21:02:44.042Z,85.10
2023-05-14T21:05:15.078Z,85.20
2023-05-14T21:07:44.379Z,85.20
2023-05-14T21:10:15.091Z,85.00
2023-05-14T21:12:44.727Z,85.20
2023-05-14T21:15:13.307Z,85.30
2023-05-14T21:17:41.229Z,85.40
2023-05-14T21:20:15.567Z,85.40
2023-05-14T21:22:47.433Z,85.40
2023-05-14T21:25:18.406Z,85.30
2023-05-14T21:27:48.962Z,85.50
2023-05-14T21:30:30.922Z,85.60
2023-05-14T21:32:58.788Z,85.60
2023-05-14T21:35:27.021Z,85.60
2023-05-14T21:37:56.487Z,85.20
2023-05-14T21:40:30.360Z,85.50
2023-05-14T21:43:00.590Z,86.40
2023-05-14T21:45:28.691Z,85.70
2023-05-14T21:47:56.975Z,83.70
2023-05-14T21:50:30.742Z,84.00
2023-05-14T21:53:07.845Z,85.60
2023-05-14T21:55:38.552Z,86.00
2023-05-14T21:58:09.093Z,85.40
2023-05-14T22:00:39.961Z,84.70
2023-05-14T22:03:07.925Z,86.30
2023-05-14T22:05:41.901Z,86.70
2023-05-14T22:08:13.900Z,86.80
2023-05-14T22:10:45.100Z,86.20
2023-05-14T22:13:18.886Z,83.90
2023-05-14T22:15:51.402Z,86.20
2023-05-14T22:18:27.423Z,85.00
2023-05-14T22:20:58.318Z,86.40
2023-05-14T22:23:37.935Z,87.00
2023-05-14T22:26:11.696Z,87.30
2023-05-14T22:28:42.830Z,86.80
2023-05-14T22:31:13.881Z,86.60
2023-05-14T22:33:44.645Z,86.30
2023-05-14T22:36:15.327Z,86.30
2023-05-14T22:38:47.447Z,86.00
2023-05-14T22:41:17.373Z,86.30
2023-05-14T22:43:48.468Z,86.30
2023-05-14T22:46:19.523Z,86.60
2023-05-14T22:48:49.921Z,86.60
2023-05-14T22:51:20.681Z,86.80
2023-05-14T22:53:49.882Z,86.90
2023-05-14T22:56:17.791Z,86.70
2023-05-14T22:58:45.751Z,86.70
2023-05-14T23:01:13.689Z,87.00
2023-05-14T23:03:41.573Z,87.20
2023-05-14T23:06:09.510Z,87.00
2023-05-14T23:08:37.370Z,87.10
2023-05-14T23:11:06.690Z,87.30
2023-05-14T23:13:34.513Z,87.30
2023-05-14T23:16:02.414Z,86.70
2023-05-14T23:18:32.663Z,85.40
2023-05-14T23:21:03.012Z,83.10
2023-05-14T23:23:33.329Z,85.90
2023-05-14T23:26:04.180Z,88.10
2023-05-14T23:28:47.178Z,88.00
2023-05-14T23:31:15.060Z,86.90
2023-05-14T23:33:46.314Z,83.80
2023-05-14T23:36:17.172Z,85.90
2023-05-14T23:38:45.136Z,84.90
2023-05-14T23:41:19.021Z,85.90
2023-05-14T23:43:48.834Z,88.10
2023-05-14T23:46:16.959Z,88.00
2023-05-14T23:48:47.991Z,87.70
2023-05-14T23:51:21.472Z,87.80
2023-05-14T23:53:58.143Z,86.40
2023-05-14T23:56:32.156Z,86.60
2023-05-14T23:59:09.016Z,87.10
